Aérodrome :
LOGIN :

S'inscrire | Disclaimer

   EN    FR    IT 

 










Légende :    VFR   VFR Marginal   IFR   IFR Intensif   IFR Très Intensif
Visi : 
Plafond : 
>= 8 km
>= 3000ft
5 à 8 km
1000 à 3000 ft
1500m à 5 km
500 à 1000 ft
800 à 1500m
200 à 500 ft
< 800m
< 200 ft
Symboles :   Orages  Brouillard  Fortes neiges  Fortes précipitations  Vent > 20 kt
SIGMETs :   Divers  Orages  Givrage  Turbulence  Onde Orograph.  Cendres Volcan.







- Altitude de l'aérodrome : 584 ft
- Voir les cartes d'approche


LFPV - Villacoublay Vélizy

DERNIER METAR :
  • 291300Z AUTO 27009KT 9999 FEW039 BKN064 BKN090 27/17 Q1013 TEMPO -TSRA SCT060CB

METARs EXPIRÉS :
  • 291230Z AUTO 26008KT 230V290 CAVOK 26/18 Q1013 TEMPO -TSRA SCT060CB
  • 291200Z AUTO 28008KT 230V320 CAVOK 26/17 Q1013 TEMPO -TSRA SCT060CB
  • 291130Z AUTO 27008KT 210V300 CAVOK 27/18 Q1013 TEMPO -TSRA SCT060CB
  • 291100Z AUTO 25010KT 220V280 CAVOK 26/16 Q1014 TEMPO -TSRA SCT060CB
  • 291030Z AUTO 24010KT 210V270 CAVOK 27/16 Q1014 TEMPO -TSRA SCT060CB

TAF TAF LFPV
Valide du 29 à 09h jusqu'au 30 à 09h UTC


290800Z 2909/3009 22010KT CAVOK
PROB30
TEMPO 2910/2914 -TSRA SCT060CB
TEMPO 2915/2924 25015G25KT -TSRAGR BKN020CB
PROB30
TEMPO 3000/3008 -RA BKN010
PROB30
TEMPO 3002/3007 5000 BR BKN005
Pas de NOTAMs connus pour ce terrain.



MET'MAP, la Météo Aéronautique d'un coup d'oeil ! - Copyright ORBIFLY Décembre 2007 - Disclaimer

ORBIFLY MET'MAP TEAM :

Programmation & Développement : Alexandra Zaïnal
Conception & Développement : Baudouin d'Aumeries
Co-Programmation & Développement : Marc-Olivier Méhu
Soutien technique & logistique : Manuel Goepfert

Contact : metmap@orbifly.com




SOURCES & CREDITS :

   NOAA